Time;durP1;ratioP1;P1;durP2;ratioP2;P2;SDS_P1;SDS_P2;PMS_P1;PMS_P2;Temp;Humidity;BMP_temperature;BMP_pressure;BME280_temperature;BME280_humidity;BME280_pressure;Samples;Min_cycle;Max_cycle;Signal;HPM_P1;HPM_P2
2024/01/27 00:01:17;;;;;;;94.95;54.50;;;14.90;61.70;;;;;;4999887;28;85147;-76
2024/01/27 00:03:43;;;;;;;92.55;54.22;;;14.90;61.60;;;;;;4977888;28;89870;-75
2024/01/27 00:06:08;;;;;;;93.35;54.78;;;14.80;61.70;;;;;;4997114;28;86636;-76
2024/01/27 00:08:34;;;;;;;94.25;54.25;;;14.90;61.60;;;;;;4997949;28;87871;-76
2024/01/27 00:11:00;;;;;;;91.18;53.80;;;14.90;61.50;;;;;;5001402;28;86128;-76
2024/01/27 00:13:25;;;;;;;94.32;54.83;;;14.90;61.50;;;;;;4996151;28;86273;-76
2024/01/27 00:15:51;;;;;;;93.90;54.83;;;14.90;61.30;;;;;;4993630;28;86595;-75
2024/01/27 00:18:17;;;;;;;92.43;54.30;;;14.90;61.30;;;;;;4998935;28;86257;-75
2024/01/27 00:20:43;;;;;;;93.18;54.10;;;14.80;61.40;;;;;;5001087;28;85465;-75
2024/01/27 00:23:09;;;;;;;93.30;54.55;;;14.80;61.40;;;;;;4996062;28;85342;-76
2024/01/27 00:25:34;;;;;;;92.05;54.10;;;14.80;61.40;;;;;;4999740;28;86010;-76
2024/01/27 00:28:00;;;;;;;93.20;54.63;;;14.80;61.20;;;;;;4999306;28;86190;-74
2024/01/27 00:30:26;;;;;;;96.47;54.80;;;14.80;61.30;;;;;;4998677;28;85310;-75
2024/01/27 00:32:51;;;;;;;92.38;54.08;;;14.80;61.40;;;;;;5004819;28;86518;-74
2024/01/27 00:35:17;;;;;;;94.32;54.33;;;14.80;61.30;;;;;;4983218;28;89583;-75
2024/01/27 00:37:43;;;;;;;95.90;54.75;;;14.80;61.40;;;;;;5004039;28;85511;-74
2024/01/27 00:40:10;;;;;;;93.95;54.47;;;14.80;61.30;;;;;;5001221;28;85467;-75
2024/01/27 00:42:36;;;;;;;92.35;53.95;;;14.80;61.50;;;;;;4998895;28;85471;-76
2024/01/27 00:45:04;;;;;;;94.90;54.70;;;14.70;61.40;;;;;;4996129;28;85765;-77
2024/01/27 00:47:30;;;;;;;94.03;54.30;;;14.80;61.40;;;;;;5002868;28;87139;-75
2024/01/27 00:49:56;;;;;;;93.65;54.15;;;14.70;61.30;;;;;;5006175;28;86034;-75
2024/01/27 00:52:21;;;;;;;92.68;54.22;;;14.70;61.40;;;;;;5005263;28;85929;-75
2024/01/27 00:54:47;;;;;;;93.43;54.45;;;14.70;61.40;;;;;;5006097;28;86421;-75
2024/01/27 00:57:12;;;;;;;92.32;54.45;;;14.70;61.50;;;;;;5004040;28;88976;-74
2024/01/27 00:59:38;;;;;;;92.43;54.03;;;14.70;61.30;;;;;;5004537;28;87403;-76
2024/01/27 01:02:04;;;;;;;93.57;54.20;;;14.70;61.40;;;;;;5000401;28;86196;-74
2024/01/27 01:04:30;;;;;;;91.25;53.80;;;14.70;61.40;;;;;;5000478;28;86598;-75
2024/01/27 01:06:56;;;;;;;92.20;54.20;;;14.60;61.40;;;;;;5004540;28;85665;-73
2024/01/27 01:09:21;;;;;;;92.00;54.53;;;14.60;61.30;;;;;;5003656;28;85649;-74
2024/01/27 01:11:47;;;;;;;92.88;54.20;;;14.60;61.40;;;;;;5003551;28;85552;-74
2024/01/27 01:14:13;;;;;;;92.70;54.47;;;14.60;61.30;;;;;;4987924;28;88969;-73
2024/01/27 01:16:40;;;;;;;92.43;54.30;;;14.60;61.50;;;;;;5001961;28;85737;-73
2024/01/27 01:19:06;;;;;;;92.13;54.13;;;14.60;61.30;;;;;;5005918;28;85347;-73
2024/01/27 01:21:31;;;;;;;93.70;53.83;;;14.60;61.30;;;;;;4990086;28;87669;-75
2024/01/27 01:23:57;;;;;;;91.60;53.88;;;14.50;61.40;;;;;;5003115;28;85677;-74
2024/01/27 01:26:24;;;;;;;93.78;54.05;;;14.60;61.30;;;;;;5003737;28;84955;-75
2024/01/27 01:28:50;;;;;;;91.60;53.80;;;14.50;61.30;;;;;;5002256;28;85208;-72
2024/01/27 01:31:16;;;;;;;92.88;54.30;;;14.50;61.20;;;;;;5005547;28;85499;-73
2024/01/27 01:33:42;;;;;;;92.47;53.80;;;14.50;61.30;;;;;;5003187;28;85790;-75
2024/01/27 01:36:08;;;;;;;92.40;54.20;;;14.50;61.20;;;;;;4996426;28;85768;-73
2024/01/27 01:38:34;;;;;;;93.13;53.75;;;14.50;61.30;;;;;;4994236;28;85368;-73
2024/01/27 01:41:00;;;;;;;90.90;53.70;;;14.50;61.30;;;;;;5004567;28;85617;-73
2024/01/27 01:43:25;;;;;;;92.72;53.72;;;14.40;61.30;;;;;;5000755;28;86308;-74
2024/01/27 01:45:53;;;;;;;92.32;54.30;;;14.40;61.20;;;;;;5003043;28;85912;-81
2024/01/27 01:48:19;;;;;;;92.72;53.88;;;14.40;61.30;;;;;;5004585;28;84276;-80
2024/01/27 01:50:45;;;;;;;91.93;53.95;;;14.40;61.20;;;;;;5002502;28;84642;-81
2024/01/27 01:53:13;;;;;;;91.32;54.45;;;14.50;61.40;;;;;;5003506;28;85599;-80
2024/01/27 01:55:39;;;;;;;92.55;53.85;;;14.40;61.40;;;;;;5009266;28;85359;-80
2024/01/27 01:58:05;;;;;;;92.45;53.78;;;14.40;61.50;;;;;;4985546;28;85174;-81
2024/01/27 02:00:31;;;;;;;91.93;53.95;;;14.40;61.50;;;;;;5004932;28;84741;-81
2024/01/27 02:02:57;;;;;;;92.15;53.63;;;14.40;61.70;;;;;;5002389;28;85638;-80
2024/01/27 02:05:23;;;;;;;93.38;54.22;;;14.40;61.90;;;;;;5008744;28;85264;-81
2024/01/27 02:07:49;;;;;;;93.00;54.28;;;14.40;61.50;;;;;;5005986;28;85917;-80
2024/01/27 02:10:15;;;;;;;92.63;54.05;;;14.40;61.60;;;;;;4999113;28;84609;-80
2024/01/27 02:12:42;;;;;;;92.28;53.60;;;14.40;61.50;;;;;;4986659;28;88257;-81
2024/01/27 02:15:12;;;;;;;92.55;53.92;;;14.30;61.50;;;;;;4986638;28;87809;-78
2024/01/27 02:17:38;;;;;;;92.78;53.97;;;14.40;61.70;;;;;;4984583;28;85689;-75
2024/01/27 02:20:08;;;;;;;92.65;53.47;;;14.30;61.60;;;;;;5003944;28;88734;-75
2024/01/27 02:22:34;;;;;;;90.80;53.88;;;14.30;61.60;;;;;;5002849;28;85801;-74
2024/01/27 02:25:01;;;;;;;91.78;53.17;;;14.30;61.50;;;;;;4983551;28;88081;-74
2024/01/27 02:27:26;;;;;;;91.97;53.65;;;14.30;61.60;;;;;;4995239;28;85392;-75
2024/01/27 02:29:52;;;;;;;91.03;53.78;;;14.30;61.60;;;;;;5000297;28;86830;-75
2024/01/27 02:32:18;;;;;;;90.80;53.90;;;14.30;61.70;;;;;;5003237;28;85811;-74
2024/01/27 02:34:43;;;;;;;90.93;53.85;;;14.30;61.50;;;;;;4998242;28;86292;-74
2024/01/27 02:37:09;;;;;;;92.65;54.25;;;14.30;61.50;;;;;;5003407;28;85286;-75
2024/01/27 02:39:36;;;;;;;92.18;54.22;;;14.20;61.50;;;;;;4995915;28;86709;-75
2024/01/27 02:42:02;;;;;;;92.93;54.13;;;14.20;61.50;;;;;;4998890;28;87151;-75
2024/01/27 02:44:27;;;;;;;89.88;53.72;;;14.20;61.50;;;;;;4999168;28;85018;-75
2024/01/27 02:46:53;;;;;;;92.63;53.50;;;14.20;61.50;;;;;;4992619;28;85192;-75
2024/01/27 02:49:19;;;;;;;91.38;54.25;;;14.20;61.50;;;;;;4979897;28;87364;-74
2024/01/27 02:51:44;;;;;;;92.55;54.17;;;14.20;61.50;;;;;;4998282;28;85753;-75
2024/01/27 02:54:10;;;;;;;90.20;53.90;;;14.20;61.40;;;;;;5000464;28;85489;-75
2024/01/27 02:56:36;;;;;;;93.85;54.20;;;14.20;61.40;;;;;;4997330;28;85520;-74
2024/01/27 02:59:02;;;;;;;90.18;53.40;;;14.10;61.50;;;;;;4998384;28;85473;-75
2024/01/27 03:01:27;;;;;;;90.88;53.83;;;14.10;61.50;;;;;;4997227;28;86048;-75
2024/01/27 03:03:53;;;;;;;89.80;53.25;;;14.10;61.50;;;;;;5000088;28;86014;-77
2024/01/27 03:06:19;;;;;;;90.15;53.42;;;14.10;61.40;;;;;;4997941;28;85450;-75
2024/01/27 03:08:44;;;;;;;91.80;53.35;;;14.10;61.50;;;;;;4993753;28;85716;-76
2024/01/27 03:11:10;;;;;;;89.63;53.00;;;14.10;62.30;;;;;;4995910;28;85070;-75
2024/01/27 03:13:36;;;;;;;91.13;53.83;;;14.10;61.60;;;;;;4996524;28;86185;-74
2024/01/27 03:16:02;;;;;;;91.07;53.45;;;14.10;61.50;;;;;;5001202;28;85180;-76
2024/01/27 03:18:28;;;;;;;91.00;53.88;;;14.10;61.60;;;;;;5001761;28;88924;-76
2024/01/27 03:20:53;;;;;;;92.57;53.60;;;14.10;61.60;;;;;;5000768;28;85325;-74
2024/01/27 03:23:19;;;;;;;90.13;53.53;;;14.10;61.60;;;;;;4999340;28;85501;-75
2024/01/27 03:25:45;;;;;;;90.40;53.67;;;14.10;61.60;;;;;;4997732;28;85648;-73
2024/01/27 03:28:10;;;;;;;90.25;53.97;;;14.00;61.60;;;;;;5001361;28;85474;-76
2024/01/27 03:30:37;;;;;;;90.22;53.65;;;14.00;61.70;;;;;;5004517;28;85153;-73
2024/01/27 03:33:03;;;;;;;90.90;53.97;;;14.00;61.70;;;;;;4998095;28;85834;-74
2024/01/27 03:35:29;;;;;;;91.30;53.72;;;14.00;61.70;;;;;;5004237;28;85256;-74
2024/01/27 03:37:54;;;;;;;89.18;53.17;;;14.00;61.70;;;;;;5004664;28;86067;-74
2024/01/27 03:40:20;;;;;;;90.88;53.75;;;14.00;61.70;;;;;;5000003;28;85263;-76
2024/01/27 03:42:45;;;;;;;92.20;53.70;;;14.00;61.70;;;;;;5000388;28;85620;-74
2024/01/27 03:45:11;;;;;;;91.40;53.83;;;13.90;61.60;;;;;;5000962;28;84968;-74
2024/01/27 03:47:37;;;;;;;89.53;53.65;;;13.90;61.80;;;;;;5000273;28;85985;-72
2024/01/27 03:50:02;;;;;;;90.13;53.17;;;14.00;61.80;;;;;;4981678;28;89709;-73
2024/01/27 03:52:28;;;;;;;90.97;53.95;;;13.90;61.70;;;;;;5005370;28;84874;-73
2024/01/27 03:54:54;;;;;;;92.00;53.92;;;13.90;61.70;;;;;;5007240;28;89041;-72
2024/01/27 03:57:19;;;;;;;91.82;53.97;;;13.90;61.80;;;;;;4999966;28;86210;-72
2024/01/27 03:59:45;;;;;;;90.63;53.50;;;13.90;61.70;;;;;;5005941;28;85203;-75
2024/01/27 04:02:11;;;;;;;90.85;53.63;;;13.90;61.80;;;;;;5004616;28;85305;-73
2024/01/27 04:04:36;;;;;;;90.97;53.75;;;13.80;61.70;;;;;;5002646;28;86369;-73
2024/01/27 04:07:02;;;;;;;92.03;53.65;;;13.90;61.70;;;;;;5001442;28;85097;-73
2024/01/27 04:09:27;;;;;;;90.85;53.55;;;13.90;61.70;;;;;;5008358;28;87237;-73
2024/01/27 04:11:53;;;;;;;89.78;53.88;;;13.90;61.70;;;;;;5007856;28;85270;-74
2024/01/27 04:14:19;;;;;;;89.20;53.30;;;13.80;61.60;;;;;;5008532;28;85168;-73
2024/01/27 04:16:45;;;;;;;90.78;53.40;;;13.80;61.80;;;;;;5006655;28;85855;-76
2024/01/27 04:19:10;;;;;;;90.40;53.78;;;13.80;61.80;;;;;;5001213;28;85930;-73
2024/01/27 04:21:36;;;;;;;89.72;53.05;;;13.80;61.80;;;;;;5007650;28;85422;-73
2024/01/27 04:24:02;;;;;;;90.38;53.35;;;13.80;61.80;;;;;;5006939;28;86532;-73
2024/01/27 04:26:28;;;;;;;91.10;54.13;;;13.80;61.70;;;;;;5004067;28;85646;-73
2024/01/27 04:28:53;;;;;;;92.47;53.63;;;13.80;61.80;;;;;;4985895;28;88122;-76
2024/01/27 04:31:19;;;;;;;91.05;53.63;;;13.80;61.80;;;;;;4987117;28;88362;-73
2024/01/27 04:33:45;;;;;;;91.63;53.58;;;13.80;61.80;;;;;;5007147;28;85219;-73
2024/01/27 04:36:10;;;;;;;90.18;52.92;;;13.70;61.70;;;;;;5006878;28;86827;-77
2024/01/27 04:38:36;;;;;;;89.20;53.17;;;13.80;61.80;;;;;;4985080;28;90390;-76
2024/01/27 04:41:02;;;;;;;90.55;53.83;;;13.80;61.70;;;;;;5000887;28;85793;-78
2024/01/27 04:43:28;;;;;;;89.85;53.53;;;13.70;61.70;;;;;;5004341;28;86377;-77
2024/01/27 04:45:54;;;;;;;90.45;53.30;;;13.70;61.70;;;;;;5007445;28;85574;-77
2024/01/27 04:48:20;;;;;;;89.80;53.47;;;13.80;61.90;;;;;;5002011;28;85534;-78
2024/01/27 04:50:46;;;;;;;89.22;52.97;;;13.70;61.70;;;;;;4985679;28;88217;-77
2024/01/27 04:53:12;;;;;;;88.05;53.05;;;13.70;61.70;;;;;;5008479;28;85878;-79
2024/01/27 04:55:38;;;;;;;89.93;53.45;;;13.70;61.80;;;;;;5004352;28;86784;-79
2024/01/27 04:58:04;;;;;;;90.55;53.13;;;13.70;61.80;;;;;;5007171;28;85781;-79
2024/01/27 05:00:30;;;;;;;89.18;53.22;;;13.60;61.70;;;;;;4987679;28;88426;-79
2024/01/27 05:02:57;;;;;;;89.28;53.42;;;13.70;61.80;;;;;;5004262;28;84795;-79
2024/01/27 05:05:23;;;;;;;89.03;53.08;;;13.70;61.80;;;;;;5009559;28;85436;-78
2024/01/27 05:07:49;;;;;;;90.00;53.42;;;13.70;61.90;;;;;;5005122;28;85846;-78
2024/01/27 05:10:17;;;;;;;90.70;54.00;;;13.60;61.80;;;;;;4998183;28;88535;-79
2024/01/27 05:12:43;;;;;;;88.68;53.05;;;13.60;61.70;;;;;;5007459;28;85543;-78
2024/01/27 05:15:10;;;;;;;88.97;53.20;;;13.60;61.70;;;;;;5000889;28;86091;-78
2024/01/27 05:17:36;;;;;;;90.25;53.10;;;13.60;61.70;;;;;;5001336;28;85419;-78
2024/01/27 05:20:04;;;;;;;89.47;53.42;;;13.60;61.80;;;;;;5003203;28;86618;-78
2024/01/27 05:22:30;;;;;;;90.80;53.10;;;13.60;61.70;;;;;;5007504;28;85288;-78
2024/01/27 05:24:55;;;;;;;91.05;53.45;;;13.60;61.80;;;;;;5000247;28;85641;-79
2024/01/27 05:27:21;;;;;;;88.03;52.78;;;13.60;61.80;;;;;;5005168;28;85330;-79
2024/01/27 05:29:46;;;;;;;89.72;53.45;;;13.60;61.80;;;;;;4999243;28;86404;-78
2024/01/27 05:32:12;;;;;;;89.18;53.20;;;13.60;61.80;;;;;;5002561;28;85703;-78
2024/01/27 05:34:38;;;;;;;89.10;53.22;;;13.60;61.80;;;;;;5002084;28;85628;-77
2024/01/27 05:37:04;;;;;;;89.35;53.55;;;13.60;61.80;;;;;;5008473;28;85416;-77
2024/01/27 05:39:29;;;;;;;89.20;52.80;;;13.60;61.80;;;;;;4996637;28;86580;-76
2024/01/27 05:41:55;;;;;;;88.82;52.80;;;13.50;61.80;;;;;;5002467;28;85569;-78
2024/01/27 05:44:21;;;;;;;88.70;52.92;;;13.50;61.90;;;;;;4998639;28;86986;-77
2024/01/27 05:46:47;;;;;;;90.90;53.35;;;13.50;61.90;;;;;;5005270;28;85942;-79
2024/01/27 05:49:12;;;;;;;89.95;53.10;;;13.50;61.90;;;;;;4997975;28;85885;-79
2024/01/27 05:51:38;;;;;;;89.60;52.75;;;13.50;62.00;;;;;;5002273;28;86412;-78
2024/01/27 05:54:04;;;;;;;88.85;52.85;;;13.50;61.80;;;;;;4998643;28;87685;-79
2024/01/27 05:56:29;;;;;;;89.15;52.90;;;13.50;61.80;;;;;;5001051;28;85944;-76
2024/01/27 05:58:55;;;;;;;88.85;52.95;;;13.50;61.90;;;;;;5000895;28;86173;-79
2024/01/27 06:01:21;;;;;;;88.35;52.80;;;13.50;61.80;;;;;;4998977;28;85455;-79
2024/01/27 06:03:46;;;;;;;89.82;53.28;;;13.50;61.80;;;;;;4995687;28;85018;-79
2024/01/27 06:06:12;;;;;;;88.53;52.25;;;13.50;61.90;;;;;;5002624;28;86016;-79
2024/01/27 06:08:38;;;;;;;89.82;52.70;;;13.40;61.80;;;;;;4997762;28;86520;-78
2024/01/27 06:11:04;;;;;;;89.32;52.58;;;13.40;61.70;;;;;;5003682;28;85222;-79
2024/01/27 06:13:30;;;;;;;89.22;53.08;;;13.40;61.90;;;;;;5004670;28;84877;-78
2024/01/27 06:15:56;;;;;;;88.93;53.08;;;13.50;61.90;;;;;;5002881;28;85331;-79
2024/01/27 06:18:21;;;;;;;88.97;53.05;;;13.40;61.90;;;;;;4999034;28;86546;-79
2024/01/27 06:20:47;;;;;;;89.68;53.00;;;13.40;62.00;;;;;;4999580;28;85463;-79
2024/01/27 06:23:13;;;;;;;89.15;52.80;;;13.40;61.90;;;;;;5002020;28;85219;-79
2024/01/27 06:25:39;;;;;;;87.68;52.50;;;13.40;62.00;;;;;;4982770;28;88788;-73
2024/01/27 06:28:05;;;;;;;90.03;53.25;;;13.40;62.00;;;;;;4999265;28;85055;-74
2024/01/27 06:30:30;;;;;;;90.78;52.67;;;13.40;61.80;;;;;;4996073;28;86249;-74
2024/01/27 06:32:56;;;;;;;88.00;52.88;;;13.40;62.00;;;;;;5003326;28;86119;-74
2024/01/27 06:35:21;;;;;;;89.82;53.08;;;13.30;61.80;;;;;;5000334;28;85517;-73
2024/01/27 06:37:47;;;;;;;92.60;52.95;;;13.30;62.00;;;;;;4999446;28;85514;-74
2024/01/27 06:40:13;;;;;;;89.60;53.05;;;13.30;61.90;;;;;;4995861;28;85005;-74
2024/01/27 06:42:39;;;;;;;88.45;53.08;;;13.30;61.80;;;;;;5003376;28;87595;-72
2024/01/27 06:45:05;;;;;;;90.43;53.00;;;13.30;61.90;;;;;;4999266;28;88779;-73
2024/01/27 06:47:31;;;;;;;90.15;53.03;;;13.30;61.90;;;;;;4998934;28;84996;-73
2024/01/27 06:49:57;;;;;;;90.28;52.83;;;13.30;61.80;;;;;;4997211;28;85654;-73
2024/01/27 06:52:22;;;;;;;87.85;52.67;;;13.30;61.80;;;;;;5001597;28;86462;-72
2024/01/27 06:54:48;;;;;;;88.70;52.83;;;13.30;62.00;;;;;;5002867;28;85212;-73
2024/01/27 06:57:24;;;;;;;88.60;53.22;;;13.30;61.80;;;;;;5003085;28;85672;-74
2024/01/27 06:59:55;;;;;;;89.15;52.80;;;13.30;61.80;;;;;;4996794;28;86671;-74
2024/01/27 07:02:26;;;;;;;91.82;53.13;;;13.30;61.90;;;;;;5000506;28;85222;-73
2024/01/27 07:04:52;;;;;;;87.23;52.47;;;13.20;61.90;;;;;;5000651;28;86239;-74
2024/01/27 07:07:22;;;;;;;90.78;52.88;;;13.30;61.90;;;;;;4999435;28;84981;-74
2024/01/27 07:09:47;;;;;;;90.95;52.42;;;13.20;61.80;;;;;;4994906;28;85573;-73
2024/01/27 07:12:13;;;;;;;88.38;52.53;;;13.30;61.80;;;;;;5000529;28;85081;-77
2024/01/27 07:14:39;;;;;;;89.28;52.55;;;13.20;61.80;;;;;;4982291;28;89087;-77
2024/01/27 07:17:05;;;;;;;87.85;52.63;;;13.20;61.90;;;;;;5000299;28;85906;-77
2024/01/27 07:19:31;;;;;;;88.43;52.85;;;13.20;62.00;;;;;;4978121;28;85500;-77
2024/01/27 07:21:56;;;;;;;88.68;52.95;;;13.20;61.90;;;;;;5000350;28;85220;-77
2024/01/27 07:24:22;;;;;;;89.18;52.95;;;13.20;62.70;;;;;;4994269;28;85026;-77
2024/01/27 07:26:47;;;;;;;89.50;52.63;;;13.20;61.90;;;;;;4995025;28;85249;-79
2024/01/27 07:29:13;;;;;;;88.38;52.90;;;13.20;61.90;;;;;;5001233;28;84683;-79
2024/01/27 07:31:39;;;;;;;91.18;53.03;;;13.20;61.80;;;;;;4994860;28;87792;-77
2024/01/27 07:34:06;;;;;;;89.35;52.65;;;13.20;61.80;;;;;;5000327;28;85537;-77
2024/01/27 07:36:32;;;;;;;89.10;53.05;;;13.20;61.90;;;;;;4991375;28;88147;-76
2024/01/27 07:38:58;;;;;;;88.82;52.88;;;13.20;61.80;;;;;;4986759;28;85029;-78
2024/01/27 07:41:24;;;;;;;89.93;53.03;;;13.20;61.80;;;;;;4994751;28;85530;-80
2024/01/27 07:43:50;;;;;;;89.40;52.45;;;13.20;61.90;;;;;;4994252;28;85238;-77
2024/01/27 07:46:15;;;;;;;88.72;52.67;;;13.10;61.80;;;;;;4995350;28;86096;-79
2024/01/27 07:48:41;;;;;;;89.47;52.65;;;13.10;61.80;;;;;;4991795;28;85303;-77
2024/01/27 07:51:07;;;;;;;89.97;53.38;;;13.10;61.80;;;;;;4993630;28;89519;-78
2024/01/27 07:53:33;;;;;;;88.43;52.80;;;13.20;61.80;;;;;;5003459;28;85329;-79
2024/01/27 07:55:59;;;;;;;89.75;52.97;;;13.20;61.80;;;;;;4990485;28;86941;-80
2024/01/27 07:58:25;;;;;;;89.50;52.53;;;13.20;61.80;;;;;;5006905;28;84564;-81
2024/01/27 08:00:51;;;;;;;90.22;52.45;;;13.20;61.90;;;;;;5001034;28;85167;-82
2024/01/27 08:03:16;;;;;;;90.05;52.67;;;13.10;61.70;;;;;;4980699;28;88567;-81
2024/01/27 08:05:42;;;;;;;88.00;52.55;;;13.10;61.80;;;;;;4995118;28;85094;-81
2024/01/27 08:08:08;;;;;;;91.65;52.55;;;13.20;62.00;;;;;;4998881;28;85282;-81
2024/01/27 08:10:34;;;;;;;91.28;52.97;;;13.20;61.90;;;;;;4993917;28;85337;-82
2024/01/27 08:12:59;;;;;;;91.10;53.08;;;13.20;61.90;;;;;;4981640;28;87027;-80
2024/01/27 08:15:25;;;;;;;88.95;52.70;;;13.20;62.10;;;;;;4999966;28;85171;-81
2024/01/27 08:17:51;;;;;;;92.30;52.67;;;13.10;62.10;;;;;;4999794;28;85116;-81
2024/01/27 08:20:16;;;;;;;94.95;53.05;;;13.10;61.90;;;;;;4996767;28;85693;-80
2024/01/27 08:22:42;;;;;;;89.85;52.40;;;13.10;61.70;;;;;;4998368;28;85878;-80
2024/01/27 08:25:08;;;;;;;87.20;52.60;;;13.10;61.90;;;;;;5000625;28;85201;-78
2024/01/27 08:27:34;;;;;;;90.00;52.50;;;13.10;61.90;;;;;;4995296;28;85218;-79
2024/01/27 08:29:59;;;;;;;89.65;52.75;;;13.10;61.70;;;;;;4995364;28;85309;-78
2024/01/27 08:32:25;;;;;;;88.80;52.47;;;13.10;61.70;;;;;;4998014;28;85782;-78
2024/01/27 08:34:50;;;;;;;88.85;52.83;;;13.10;61.60;;;;;;4999044;28;85256;-77
2024/01/27 08:37:20;;;;;;;90.82;54.08;;;13.10;61.60;;;;;;4995009;28;84850;-77
2024/01/27 08:39:46;;;;;;;94.85;56.80;;;13.10;61.60;;;;;;4995492;28;85341;-76
2024/01/27 08:42:12;;;;;;;94.60;55.95;;;13.20;61.70;;;;;;4999091;28;85643;-73
2024/01/27 08:44:39;;;;;;;93.43;56.08;;;13.20;61.60;;;;;;5003278;28;86295;-73
2024/01/27 08:47:05;;;;;;;96.47;56.08;;;13.30;61.30;;;;;;4996270;28;85494;-75
2024/01/27 08:49:31;;;;;;;93.03;55.97;;;13.40;61.20;;;;;;4976870;28;88510;-74
2024/01/27 08:51:56;;;;;;;91.10;55.60;;;13.40;60.90;;;;;;5000188;28;85900;-74
2024/01/27 08:54:22;;;;;;;96.07;55.63;;;13.50;60.90;;;;;;5001220;28;84937;-73
2024/01/27 08:56:48;;;;;;;94.22;55.45;;;13.50;60.70;;;;;;4998890;28;85463;-73
2024/01/27 08:59:14;;;;;;;93.28;55.42;;;13.60;60.70;;;;;;5002315;28;85420;-73
2024/01/27 09:01:39;;;;;;;91.55;54.72;;;13.70;60.80;;;;;;4999804;28;86545;-78
2024/01/27 09:04:05;;;;;;;94.50;55.33;;;13.70;60.80;;;;;;4982120;28;88264;-78
2024/01/27 09:06:32;;;;;;;92.47;54.90;;;13.70;60.90;;;;;;4994805;28;85037;-77
2024/01/27 09:08:57;;;;;;;90.88;54.30;;;13.70;60.90;;;;;;4995283;28;86210;-77
2024/01/27 09:11:23;;;;;;;92.25;54.70;;;13.70;60.90;;;;;;4977872;28;89042;-79
2024/01/27 09:13:51;;;;;;;93.40;55.15;;;13.70;60.80;;;;;;5003500;28;86106;-79
2024/01/27 09:16:17;;;;;;;90.88;54.45;;;13.80;60.80;;;;;;4996435;28;86549;-78
2024/01/27 09:18:43;;;;;;;92.25;54.60;;;13.80;60.70;;;;;;4985690;28;85930;-81
2024/01/27 09:21:09;;;;;;;94.97;54.40;;;13.90;60.80;;;;;;4967852;28;88878;-81
2024/01/27 09:23:35;;;;;;;96.68;53.97;;;13.90;61.20;;;;;;4986765;28;86394;-77
2024/01/27 09:26:01;;;;;;;91.88;54.35;;;13.90;60.90;;;;;;4989736;28;85034;-81
2024/01/27 09:28:27;;;;;;;98.10;54.35;;;13.90;60.90;;;;;;4990763;28;85325;-74
2024/01/27 09:30:52;;;;;;;98.93;54.53;;;13.90;60.70;;;;;;4993372;28;86373;-72
2024/01/27 09:33:19;;;;;;;93.00;54.42;;;13.90;60.50;;;;;;4986041;28;85781;-83
2024/01/27 09:35:46;;;;;;;95.35;54.28;;;14.00;60.70;;;;;;4990375;28;85643;-82
2024/01/27 09:38:12;;;;;;;98.28;54.95;;;14.20;61.80;;;;;;4995439;28;84985;-78
2024/01/27 09:40:38;;;;;;;94.72;54.05;;;14.40;64.30;;;;;;5009973;28;85289;-82
2024/01/27 09:43:04;;;;;;;97.07;54.00;;;14.50;64.00;;;;;;5003019;28;85541;-82
2024/01/27 09:45:30;;;;;;;95.28;54.20;;;14.60;63.70;;;;;;4999846;28;89433;-84
2024/01/27 09:48:00;;;;;;;96.72;54.25;;;14.70;64.60;;;;;;4998323;28;85871;-81
2024/01/27 09:50:26;;;;;;;123.23;71.43;;;14.80;65.80;;;;;;5001104;28;85333;-76
2024/01/27 09:52:53;;;;;;;121.60;67.75;;;14.90;62.50;;;;;;4997808;28;85411;-78
2024/01/27 09:55:19;;;;;;;150.13;88.07;;;14.40;57.20;;;;;;4997010;28;85681;-75
2024/01/27 09:57:46;;;;;;;167.13;96.78;;;14.30;58.60;;;;;;4999623;28;86092;-77
2024/01/27 10:00:12;;;;;;;178.65;99.20;;;14.60;59.30;;;;;;5001254;28;86334;-77
2024/01/27 10:02:42;;;;;;;172.88;100.57;;;14.80;59.00;;;;;;5042151;22;85819;-73
2024/01/27 10:05:09;;;;;;;167.73;99.80;;;14.90;58.70;;;;;;5000509;27;87988;-74
2024/01/27 10:07:34;;;;;;;164.48;97.85;;;14.90;58.60;;;;;;4993203;28;91621;-71
2024/01/27 10:10:00;;;;;;;165.93;94.18;;;15.00;58.70;;;;;;5017673;27;85304;-74
2024/01/27 10:12:28;;;;;;;161.23;93.97;;;15.10;59.00;;;;;;5018782;27;84976;-71
2024/01/27 10:14:54;;;;;;;152.50;89.03;;;15.20;59.10;;;;;;5014890;27;89534;-74
2024/01/27 10:17:26;;;;;;;149.70;87.43;;;15.30;58.80;;;;;;5015676;27;85368;-76
2024/01/27 10:20:05;;;;;;;151.63;85.55;;;15.40;59.10;;;;;;5005065;27;86413;-70
2024/01/27 10:22:40;;;;;;;140.80;81.70;;;15.50;59.50;;;;;;5009592;27;88607;-71
2024/01/27 10:25:07;;;;;;;138.18;79.53;;;15.60;58.50;;;;;;5012845;27;85627;-70
2024/01/27 10:27:33;;;;;;;143.75;79.20;;;15.60;58.30;;;;;;4994273;28;87353;-76
2024/01/27 10:29:59;;;;;;;130.30;76.10;;;15.70;58.00;;;;;;5003582;28;85503;-70
2024/01/27 10:32:24;;;;;;;128.40;73.90;;;15.70;58.10;;;;;;5019441;27;85338;-73
2024/01/27 10:35:11;;;;;;;123.93;72.10;;;15.80;57.40;;;;;;5016993;28;86760;-75
2024/01/27 10:37:37;;;;;;;125.10;69.28;;;15.80;57.40;;;;;;5018616;27;85327;-73
2024/01/27 10:40:04;;;;;;;120.53;68.35;;;15.90;57.40;;;;;;5001931;27;85299;-71
2024/01/27 10:42:30;;;;;;;119.40;68.28;;;16.00;57.20;;;;;;5018521;28;84996;-69
2024/01/27 10:45:02;;;;;;;116.00;68.38;;;16.00;57.20;;;;;;5042824;22;86072;-85
2024/01/27 10:47:29;;;;;;;118.47;68.07;;;16.20;57.20;;;;;;5000346;28;85221;-88
2024/01/27 10:49:57;;;;;;;115.57;66.45;;;16.20;57.20;;;;;;5001211;28;86093;-79
2024/01/27 10:52:33;;;;;;;116.38;65.60;;;16.30;57.30;;;;;;5007958;22;87398;-41
2024/01/27 10:55:01;;;;;;;115.60;65.22;;;16.20;57.20;;;;;;4985639;28;85980;-42
2024/01/27 10:57:28;;;;;;;111.78;64.07;;;16.30;57.30;;;;;;4990160;28;86294;-43
2024/01/27 10:59:59;;;;;;;113.40;63.85;;;16.30;57.20;;;;;;4989021;28;85745;-44
2024/01/27 11:02:26;;;;;;;115.30;63.55;;;16.30;57.30;;;;;;4976934;28;88689;-44
2024/01/27 11:04:54;;;;;;;116.20;63.55;;;16.30;57.50;;;;;;5016670;22;86013;-79
2024/01/27 11:07:23;;;;;;;110.68;62.10;;;16.30;57.80;;;;;;5001949;27;87562;-72
2024/01/27 11:09:52;;;;;;;116.72;62.15;;;16.30;57.80;;;;;;5003487;27;86120;-70
2024/01/27 11:12:21;;;;;;;111.40;63.22;;;16.40;58.00;;;;;;5007349;27;86306;-68
2024/01/27 11:14:51;;;;;;;112.40;64.40;;;16.30;58.30;;;;;;4982821;28;85733;-70
2024/01/27 11:17:17;;;;;;;114.30;65.18;;;16.30;58.50;;;;;;5011350;28;85307;-67
2024/01/27 11:19:44;;;;;;;113.03;64.18;;;16.40;58.90;;;;;;5008878;27;86764;-67
2024/01/27 11:22:23;;;;;;;112.47;64.35;;;16.40;59.20;;;;;;5009436;27;86272;-74
2024/01/27 11:24:49;;;;;;;112.50;63.90;;;16.50;59.30;;;;;;5007538;27;86567;-75
2024/01/27 11:27:15;;;;;;;111.43;62.83;;;16.60;59.70;;;;;;5003209;27;87608;-73
2024/01/27 11:29:47;;;;;;;110.55;62.83;;;16.70;59.80;;;;;;5011961;27;86247;-71
2024/01/27 11:32:13;;;;;;;110.82;62.88;;;16.80;60.50;;;;;;5002344;27;85591;-75
2024/01/27 11:34:45;;;;;;;108.65;61.75;;;16.80;60.10;;;;;;5007146;27;86005;-70
2024/01/27 11:37:24;;;;;;;109.05;61.05;;;16.90;60.20;;;;;;5009231;27;85736;-75
2024/01/27 11:39:51;;;;;;;108.43;62.03;;;17.00;60.30;;;;;;4991788;28;89954;-75
2024/01/27 11:42:17;;;;;;;110.60;62.08;;;17.00;60.60;;;;;;4981624;28;85821;-73
2024/01/27 11:44:43;;;;;;;107.95;61.15;;;17.10;61.10;;;;;;4985572;28;85410;-70
2024/01/27 11:47:15;;;;;;;109.10;61.30;;;17.10;60.60;;;;;;4998706;22;86342;-81
2024/01/27 11:49:42;;;;;;;107.85;60.72;;;17.10;60.90;;;;;;4998663;28;86456;-76
2024/01/27 11:52:08;;;;;;;108.25;60.67;;;17.10;61.30;;;;;;5004509;28;85994;-78
2024/01/27 11:54:34;;;;;;;105.70;60.47;;;17.20;61.40;;;;;;5003741;28;86269;-77
2024/01/27 11:57:01;;;;;;;105.78;59.90;;;17.20;61.20;;;;;;4995473;28;88074;-85
2024/01/27 11:59:27;;;;;;;106.32;59.65;;;17.20;61.20;;;;;;5002083;27;86479;-81
2024/01/27 12:01:52;;;;;;;106.95;59.05;;;17.20;61.30;;;;;;5000536;28;86775;-81
2024/01/27 12:04:19;;;;;;;107.18;59.47;;;17.30;61.40;;;;;;5002961;28;85990;-80
2024/01/27 12:06:45;;;;;;;105.70;58.58;;;17.30;61.20;;;;;;4999501;28;88615;-80
2024/01/27 12:09:12;;;;;;;103.95;58.67;;;17.40;61.10;;;;;;4993980;28;86022;-81
2024/01/27 12:11:41;;;;;;;103.75;58.28;;;17.30;60.80;;;;;;4999376;28;85422;-82
2024/01/27 12:14:07;;;;;;;107.20;58.47;;;17.30;61.10;;;;;;4993782;28;88462;-75
2024/01/27 12:16:32;;;;;;;103.15;58.17;;;17.30;61.60;;;;;;4991664;28;85695;-75
2024/01/27 12:18:59;;;;;;;105.40;58.28;;;17.40;62.10;;;;;;4990006;28;85671;-75
2024/01/27 12:21:25;;;;;;;105.05;58.33;;;17.40;61.90;;;;;;4987654;28;89072;-74